sensor_id;sensor_type;location;lat;lon;timestamp;P1;durP1;ratioP1;P2;durP2;ratioP2
72261;SDS011;60173;52.112;8.648;2023-09-07T00:00:23;7.05;;;4.95;;
72261;SDS011;60173;52.112;8.648;2023-09-07T00:02:49;8.13;;;5.70;;
72261;SDS011;60173;52.112;8.648;2023-09-07T00:05:16;7.78;;;5.13;;
72261;SDS011;60173;52.112;8.648;2023-09-07T00:07:43;10.52;;;5.30;;
72261;SDS011;60173;52.112;8.648;2023-09-07T00:10:09;9.68;;;5.80;;
72261;SDS011;60173;52.112;8.648;2023-09-07T00:12:35;9.30;;;5.70;;
72261;SDS011;60173;52.112;8.648;2023-09-07T00:15:02;7.30;;;4.88;;
72261;SDS011;60173;52.112;8.648;2023-09-07T00:17:28;9.15;;;4.68;;
72261;SDS011;60173;52.112;8.648;2023-09-07T00:19:55;9.25;;;5.28;;
72261;SDS011;60173;52.112;8.648;2023-09-07T00:22:21;8.98;;;5.05;;
72261;SDS011;60173;52.112;8.648;2023-09-07T00:24:48;7.45;;;4.60;;
72261;SDS011;60173;52.112;8.648;2023-09-07T00:27:14;8.30;;;5.38;;
72261;SDS011;60173;52.112;8.648;2023-09-07T00:29:40;9.23;;;5.00;;
72261;SDS011;60173;52.112;8.648;2023-09-07T00:32:07;9.48;;;5.35;;
72261;SDS011;60173;52.112;8.648;2023-09-07T00:34:33;7.05;;;5.05;;
72261;SDS011;60173;52.112;8.648;2023-09-07T00:37:00;9.02;;;5.20;;
72261;SDS011;60173;52.112;8.648;2023-09-07T00:39:26;7.03;;;5.38;;
72261;SDS011;60173;52.112;8.648;2023-09-07T00:41:53;12.15;;;5.35;;
72261;SDS011;60173;52.112;8.648;2023-09-07T00:44:19;12.55;;;5.45;;
72261;SDS011;60173;52.112;8.648;2023-09-07T00:46:46;11.20;;;6.00;;
72261;SDS011;60173;52.112;8.648;2023-09-07T00:49:13;9.88;;;6.00;;
72261;SDS011;60173;52.112;8.648;2023-09-07T00:51:40;8.70;;;4.97;;
72261;SDS011;60173;52.112;8.648;2023-09-07T00:54:07;6.07;;;5.13;;
72261;SDS011;60173;52.112;8.648;2023-09-07T00:56:33;10.63;;;5.25;;
72261;SDS011;60173;52.112;8.648;2023-09-07T00:59:02;8.27;;;5.43;;
72261;SDS011;60173;52.112;8.648;2023-09-07T01:01:29;9.90;;;5.60;;
72261;SDS011;60173;52.112;8.648;2023-09-07T01:03:56;13.70;;;5.88;;
72261;SDS011;60173;52.112;8.648;2023-09-07T01:06:25;10.88;;;5.90;;
72261;SDS011;60173;52.112;8.648;2023-09-07T01:08:57;6.93;;;5.40;;
72261;SDS011;60173;52.112;8.648;2023-09-07T01:11:35;8.23;;;5.57;;
72261;SDS011;60173;52.112;8.648;2023-09-07T01:14:02;8.10;;;4.93;;
72261;SDS011;60173;52.112;8.648;2023-09-07T01:16:28;9.23;;;5.25;;
72261;SDS011;60173;52.112;8.648;2023-09-07T01:18:55;7.53;;;4.50;;
72261;SDS011;60173;52.112;8.648;2023-09-07T01:21:22;6.85;;;4.28;;
72261;SDS011;60173;52.112;8.648;2023-09-07T01:23:50;11.13;;;4.82;;
72261;SDS011;60173;52.112;8.648;2023-09-07T01:26:17;7.45;;;3.95;;
72261;SDS011;60173;52.112;8.648;2023-09-07T01:28:44;6.32;;;4.65;;
72261;SDS011;60173;52.112;8.648;2023-09-07T01:31:10;8.25;;;4.40;;
72261;SDS011;60173;52.112;8.648;2023-09-07T01:33:37;7.25;;;4.47;;
72261;SDS011;60173;52.112;8.648;2023-09-07T01:36:03;7.82;;;4.80;;
72261;SDS011;60173;52.112;8.648;2023-09-07T01:38:30;11.43;;;6.20;;
72261;SDS011;60173;52.112;8.648;2023-09-07T01:40:57;6.28;;;5.18;;
72261;SDS011;60173;52.112;8.648;2023-09-07T01:43:23;6.65;;;5.38;;
72261;SDS011;60173;52.112;8.648;2023-09-07T01:45:50;9.82;;;5.70;;
72261;SDS011;60173;52.112;8.648;2023-09-07T01:48:17;7.97;;;5.50;;
72261;SDS011;60173;52.112;8.648;2023-09-07T01:50:43;9.18;;;6.25;;
72261;SDS011;60173;52.112;8.648;2023-09-07T01:53:10;9.05;;;6.30;;
72261;SDS011;60173;52.112;8.648;2023-09-07T01:55:36;8.48;;;6.15;;
72261;SDS011;60173;52.112;8.648;2023-09-07T01:58:03;8.88;;;7.00;;
72261;SDS011;60173;52.112;8.648;2023-09-07T02:00:29;9.48;;;6.00;;
72261;SDS011;60173;52.112;8.648;2023-09-07T02:02:56;12.50;;;6.22;;
72261;SDS011;60173;52.112;8.648;2023-09-07T02:05:22;9.13;;;6.32;;
72261;SDS011;60173;52.112;8.648;2023-09-07T02:07:49;11.93;;;6.22;;
72261;SDS011;60173;52.112;8.648;2023-09-07T02:10:15;7.80;;;5.25;;
72261;SDS011;60173;52.112;8.648;2023-09-07T02:12:42;8.80;;;6.32;;
72261;SDS011;60173;52.112;8.648;2023-09-07T02:15:08;7.53;;;5.72;;
72261;SDS011;60173;52.112;8.648;2023-09-07T02:17:35;7.88;;;5.45;;
72261;SDS011;60173;52.112;8.648;2023-09-07T02:20:01;8.90;;;6.55;;
72261;SDS011;60173;52.112;8.648;2023-09-07T02:22:28;9.05;;;5.95;;
72261;SDS011;60173;52.112;8.648;2023-09-07T02:24:54;8.65;;;6.43;;
72261;SDS011;60173;52.112;8.648;2023-09-07T02:27:21;7.88;;;5.97;;
72261;SDS011;60173;52.112;8.648;2023-09-07T02:29:47;12.55;;;6.30;;
72261;SDS011;60173;52.112;8.648;2023-09-07T02:32:14;8.30;;;5.07;;
72261;SDS011;60173;52.112;8.648;2023-09-07T02:34:40;10.35;;;4.82;;
72261;SDS011;60173;52.112;8.648;2023-09-07T02:37:06;9.88;;;5.13;;
72261;SDS011;60173;52.112;8.648;2023-09-07T02:39:33;8.38;;;5.13;;
72261;SDS011;60173;52.112;8.648;2023-09-07T02:41:59;6.20;;;4.93;;
72261;SDS011;60173;52.112;8.648;2023-09-07T02:44:25;10.60;;;5.13;;
72261;SDS011;60173;52.112;8.648;2023-09-07T02:46:52;7.93;;;4.82;;
72261;SDS011;60173;52.112;8.648;2023-09-07T02:49:18;9.02;;;5.25;;
72261;SDS011;60173;52.112;8.648;2023-09-07T02:51:45;7.85;;;4.80;;
72261;SDS011;60173;52.112;8.648;2023-09-07T02:54:11;6.40;;;4.78;;
72261;SDS011;60173;52.112;8.648;2023-09-07T02:56:37;7.82;;;5.80;;
72261;SDS011;60173;52.112;8.648;2023-09-07T02:59:04;8.60;;;5.93;;
72261;SDS011;60173;52.112;8.648;2023-09-07T03:01:30;11.15;;;6.03;;
72261;SDS011;60173;52.112;8.648;2023-09-07T03:03:57;6.78;;;5.15;;
72261;SDS011;60173;52.112;8.648;2023-09-07T03:06:23;8.52;;;5.57;;
72261;SDS011;60173;52.112;8.648;2023-09-07T03:08:50;6.93;;;5.18;;
72261;SDS011;60173;52.112;8.648;2023-09-07T03:11:16;6.40;;;5.13;;
72261;SDS011;60173;52.112;8.648;2023-09-07T03:13:43;7.75;;;4.90;;
72261;SDS011;60173;52.112;8.648;2023-09-07T03:16:09;9.32;;;5.40;;
72261;SDS011;60173;52.112;8.648;2023-09-07T03:18:36;11.68;;;7.13;;
72261;SDS011;60173;52.112;8.648;2023-09-07T03:21:03;8.23;;;5.88;;
72261;SDS011;60173;52.112;8.648;2023-09-07T03:23:29;7.65;;;6.05;;
72261;SDS011;60173;52.112;8.648;2023-09-07T03:25:57;9.52;;;5.90;;
72261;SDS011;60173;52.112;8.648;2023-09-07T03:28:23;8.57;;;5.88;;
72261;SDS011;60173;52.112;8.648;2023-09-07T03:30:54;7.50;;;5.53;;
72261;SDS011;60173;52.112;8.648;2023-09-07T03:33:21;14.77;;;6.13;;
72261;SDS011;60173;52.112;8.648;2023-09-07T03:35:47;7.63;;;6.25;;
72261;SDS011;60173;52.112;8.648;2023-09-07T03:38:14;7.30;;;5.97;;
72261;SDS011;60173;52.112;8.648;2023-09-07T03:40:40;7.35;;;5.70;;
72261;SDS011;60173;52.112;8.648;2023-09-07T03:43:07;9.20;;;6.63;;
72261;SDS011;60173;52.112;8.648;2023-09-07T03:45:33;8.20;;;6.53;;
72261;SDS011;60173;52.112;8.648;2023-09-07T03:47:59;8.25;;;6.13;;
72261;SDS011;60173;52.112;8.648;2023-09-07T03:50:27;9.02;;;7.00;;
72261;SDS011;60173;52.112;8.648;2023-09-07T03:52:54;7.55;;;6.63;;
72261;SDS011;60173;52.112;8.648;2023-09-07T03:55:20;8.38;;;6.70;;
72261;SDS011;60173;52.112;8.648;2023-09-07T03:57:48;11.10;;;6.72;;
72261;SDS011;60173;52.112;8.648;2023-09-07T04:00:15;8.77;;;6.35;;
72261;SDS011;60173;52.112;8.648;2023-09-07T04:02:41;10.70;;;6.32;;
72261;SDS011;60173;52.112;8.648;2023-09-07T04:05:08;7.53;;;5.95;;
72261;SDS011;60173;52.112;8.648;2023-09-07T04:07:35;11.20;;;6.75;;
72261;SDS011;60173;52.112;8.648;2023-09-07T04:10:01;9.88;;;6.55;;
72261;SDS011;60173;52.112;8.648;2023-09-07T04:12:28;10.35;;;7.03;;
72261;SDS011;60173;52.112;8.648;2023-09-07T04:14:54;11.45;;;7.65;;
72261;SDS011;60173;52.112;8.648;2023-09-07T04:17:21;12.75;;;7.57;;
72261;SDS011;60173;52.112;8.648;2023-09-07T04:19:47;13.40;;;7.80;;
72261;SDS011;60173;52.112;8.648;2023-09-07T04:22:14;11.23;;;7.32;;
72261;SDS011;60173;52.112;8.648;2023-09-07T04:24:40;10.77;;;6.80;;
72261;SDS011;60173;52.112;8.648;2023-09-07T04:27:06;10.80;;;8.02;;
72261;SDS011;60173;52.112;8.648;2023-09-07T04:29:33;9.27;;;7.78;;
72261;SDS011;60173;52.112;8.648;2023-09-07T04:31:59;13.35;;;7.30;;
72261;SDS011;60173;52.112;8.648;2023-09-07T04:34:26;10.60;;;7.82;;
72261;SDS011;60173;52.112;8.648;2023-09-07T04:36:52;9.50;;;7.78;;
72261;SDS011;60173;52.112;8.648;2023-09-07T04:39:19;11.25;;;8.23;;
72261;SDS011;60173;52.112;8.648;2023-09-07T04:41:45;10.88;;;7.25;;
72261;SDS011;60173;52.112;8.648;2023-09-07T04:44:12;8.70;;;7.32;;
72261;SDS011;60173;52.112;8.648;2023-09-07T04:46:38;12.63;;;7.93;;
72261;SDS011;60173;52.112;8.648;2023-09-07T04:49:05;11.38;;;7.90;;
72261;SDS011;60173;52.112;8.648;2023-09-07T04:51:31;10.77;;;7.88;;
72261;SDS011;60173;52.112;8.648;2023-09-07T04:53:57;9.23;;;7.45;;
72261;SDS011;60173;52.112;8.648;2023-09-07T04:56:24;10.35;;;7.47;;
72261;SDS011;60173;52.112;8.648;2023-09-07T04:58:50;13.32;;;7.85;;
72261;SDS011;60173;52.112;8.648;2023-09-07T05:01:17;11.30;;;7.13;;
72261;SDS011;60173;52.112;8.648;2023-09-07T05:03:43;11.30;;;8.00;;
72261;SDS011;60173;52.112;8.648;2023-09-07T05:06:10;12.48;;;7.43;;
72261;SDS011;60173;52.112;8.648;2023-09-07T05:08:37;10.88;;;7.13;;
72261;SDS011;60173;52.112;8.648;2023-09-07T05:11:04;10.63;;;7.15;;
72261;SDS011;60173;52.112;8.648;2023-09-07T05:13:31;13.20;;;7.57;;
72261;SDS011;60173;52.112;8.648;2023-09-07T05:15:58;12.50;;;7.47;;
72261;SDS011;60173;52.112;8.648;2023-09-07T05:18:25;10.60;;;8.02;;
72261;SDS011;60173;52.112;8.648;2023-09-07T05:20:52;11.13;;;8.23;;
72261;SDS011;60173;52.112;8.648;2023-09-07T05:23:19;17.40;;;7.80;;
72261;SDS011;60173;52.112;8.648;2023-09-07T05:25:50;10.88;;;7.60;;
72261;SDS011;60173;52.112;8.648;2023-09-07T05:28:18;11.57;;;8.32;;
72261;SDS011;60173;52.112;8.648;2023-09-07T05:30:45;8.85;;;7.65;;
72261;SDS011;60173;52.112;8.648;2023-09-07T05:33:14;7.72;;;6.57;;
72261;SDS011;60173;52.112;8.648;2023-09-07T05:35:43;11.32;;;7.50;;
72261;SDS011;60173;52.112;8.648;2023-09-07T05:38:09;12.57;;;7.20;;
72261;SDS011;60173;52.112;8.648;2023-09-07T05:40:36;10.98;;;7.30;;
72261;SDS011;60173;52.112;8.648;2023-09-07T05:43:06;13.85;;;7.28;;
72261;SDS011;60173;52.112;8.648;2023-09-07T05:45:34;10.18;;;7.40;;
72261;SDS011;60173;52.112;8.648;2023-09-07T05:48:03;12.55;;;7.63;;
72261;SDS011;60173;52.112;8.648;2023-09-07T05:50:31;10.32;;;7.15;;
72261;SDS011;60173;52.112;8.648;2023-09-07T05:52:59;13.93;;;7.60;;
72261;SDS011;60173;52.112;8.648;2023-09-07T05:55:26;13.07;;;7.78;;
72261;SDS011;60173;52.112;8.648;2023-09-07T05:57:55;10.05;;;6.55;;
72261;SDS011;60173;52.112;8.648;2023-09-07T06:00:23;10.63;;;6.80;;
72261;SDS011;60173;52.112;8.648;2023-09-07T06:02:49;13.45;;;6.25;;
72261;SDS011;60173;52.112;8.648;2023-09-07T06:05:16;8.65;;;4.82;;
72261;SDS011;60173;52.112;8.648;2023-09-07T06:07:44;8.10;;;4.65;;
72261;SDS011;60173;52.112;8.648;2023-09-07T06:10:10;12.20;;;5.40;;
72261;SDS011;60173;52.112;8.648;2023-09-07T06:12:37;8.73;;;5.00;;
72261;SDS011;60173;52.112;8.648;2023-09-07T06:15:03;6.90;;;4.50;;
72261;SDS011;60173;52.112;8.648;2023-09-07T06:17:30;7.90;;;4.47;;
72261;SDS011;60173;52.112;8.648;2023-09-07T06:19:57;8.18;;;5.22;;
72261;SDS011;60173;52.112;8.648;2023-09-07T06:22:23;8.40;;;5.00;;
72261;SDS011;60173;52.112;8.648;2023-09-07T06:24:49;9.85;;;5.18;;
72261;SDS011;60173;52.112;8.648;2023-09-07T06:27:16;13.02;;;5.72;;
72261;SDS011;60173;52.112;8.648;2023-09-07T06:29:42;8.88;;;5.32;;
72261;SDS011;60173;52.112;8.648;2023-09-07T06:32:09;7.38;;;5.00;;
72261;SDS011;60173;52.112;8.648;2023-09-07T06:34:35;6.43;;;5.03;;
72261;SDS011;60173;52.112;8.648;2023-09-07T06:37:02;9.68;;;5.47;;
72261;SDS011;60173;52.112;8.648;2023-09-07T06:39:28;10.90;;;6.03;;
72261;SDS011;60173;52.112;8.648;2023-09-07T06:41:55;11.02;;;6.10;;
72261;SDS011;60173;52.112;8.648;2023-09-07T06:44:21;13.68;;;6.47;;
72261;SDS011;60173;52.112;8.648;2023-09-07T06:46:47;9.88;;;6.00;;
72261;SDS011;60173;52.112;8.648;2023-09-07T06:49:14;8.00;;;5.72;;
72261;SDS011;60173;52.112;8.648;2023-09-07T06:51:40;12.98;;;6.90;;
72261;SDS011;60173;52.112;8.648;2023-09-07T06:54:06;8.88;;;5.53;;
72261;SDS011;60173;52.112;8.648;2023-09-07T06:56:33;9.60;;;5.82;;
72261;SDS011;60173;52.112;8.648;2023-09-07T06:58:59;9.95;;;6.25;;
72261;SDS011;60173;52.112;8.648;2023-09-07T07:01:26;8.40;;;6.25;;
72261;SDS011;60173;52.112;8.648;2023-09-07T07:03:53;12.80;;;5.82;;
72261;SDS011;60173;52.112;8.648;2023-09-07T07:06:19;9.68;;;5.00;;
72261;SDS011;60173;52.112;8.648;2023-09-07T07:08:46;11.82;;;5.80;;
72261;SDS011;60173;52.112;8.648;2023-09-07T07:11:12;7.95;;;5.40;;
72261;SDS011;60173;52.112;8.648;2023-09-07T07:13:38;10.57;;;5.82;;
72261;SDS011;60173;52.112;8.648;2023-09-07T07:16:06;9.40;;;5.90;;
72261;SDS011;60173;52.112;8.648;2023-09-07T07:18:35;7.30;;;5.75;;
72261;SDS011;60173;52.112;8.648;2023-09-07T07:21:01;8.93;;;5.40;;
72261;SDS011;60173;52.112;8.648;2023-09-07T07:23:28;7.53;;;5.38;;
72261;SDS011;60173;52.112;8.648;2023-09-07T07:25:55;11.55;;;5.50;;
72261;SDS011;60173;52.112;8.648;2023-09-07T07:28:21;9.32;;;5.63;;
72261;SDS011;60173;52.112;8.648;2023-09-07T07:30:47;7.85;;;5.20;;
72261;SDS011;60173;52.112;8.648;2023-09-07T07:33:14;9.00;;;5.45;;
72261;SDS011;60173;52.112;8.648;2023-09-07T07:35:40;7.03;;;5.13;;
72261;SDS011;60173;52.112;8.648;2023-09-07T07:38:07;13.15;;;5.55;;
72261;SDS011;60173;52.112;8.648;2023-09-07T07:40:34;12.52;;;5.55;;
72261;SDS011;60173;52.112;8.648;2023-09-07T07:43:00;7.05;;;5.20;;
72261;SDS011;60173;52.112;8.648;2023-09-07T07:45:27;10.38;;;5.60;;
72261;SDS011;60173;52.112;8.648;2023-09-07T07:47:53;6.80;;;4.68;;
72261;SDS011;60173;52.112;8.648;2023-09-07T07:50:20;6.40;;;4.53;;
72261;SDS011;60173;52.112;8.648;2023-09-07T07:52:46;6.60;;;4.10;;
72261;SDS011;60173;52.112;8.648;2023-09-07T07:55:13;6.63;;;4.70;;
72261;SDS011;60173;52.112;8.648;2023-09-07T07:57:39;6.43;;;4.85;;
72261;SDS011;60173;52.112;8.648;2023-09-07T08:00:05;8.90;;;4.68;;
72261;SDS011;60173;52.112;8.648;2023-09-07T08:02:32;8.98;;;4.72;;
72261;SDS011;60173;52.112;8.648;2023-09-07T08:04:59;5.10;;;4.20;;
72261;SDS011;60173;52.112;8.648;2023-09-07T08:07:25;7.00;;;4.68;;
72261;SDS011;60173;52.112;8.648;2023-09-07T08:09:52;6.05;;;3.97;;
72261;SDS011;60173;52.112;8.648;2023-09-07T08:12:18;6.75;;;4.25;;
72261;SDS011;60173;52.112;8.648;2023-09-07T08:14:45;8.05;;;4.03;;
72261;SDS011;60173;52.112;8.648;2023-09-07T08:17:12;18.33;;;5.68;;
72261;SDS011;60173;52.112;8.648;2023-09-07T08:19:38;7.85;;;4.25;;
72261;SDS011;60173;52.112;8.648;2023-09-07T08:22:05;6.00;;;4.22;;
72261;SDS011;60173;52.112;8.648;2023-09-07T08:24:32;7.28;;;4.18;;
72261;SDS011;60173;52.112;8.648;2023-09-07T08:26:58;7.95;;;4.63;;
72261;SDS011;60173;52.112;8.648;2023-09-07T08:29:25;6.97;;;4.40;;
72261;SDS011;60173;52.112;8.648;2023-09-07T08:31:52;9.30;;;3.92;;
72261;SDS011;60173;52.112;8.648;2023-09-07T08:34:21;4.93;;;3.90;;
72261;SDS011;60173;52.112;8.648;2023-09-07T08:36:48;7.05;;;3.97;;
72261;SDS011;60173;52.112;8.648;2023-09-07T08:39:15;9.27;;;4.25;;
72261;SDS011;60173;52.112;8.648;2023-09-07T08:41:43;7.95;;;4.60;;
72261;SDS011;60173;52.112;8.648;2023-09-07T08:44:26;7.82;;;4.10;;
72261;SDS011;60173;52.112;8.648;2023-09-07T08:46:53;7.80;;;4.38;;
72261;SDS011;60173;52.112;8.648;2023-09-07T08:49:20;7.03;;;4.05;;
72261;SDS011;60173;52.112;8.648;2023-09-07T08:51:47;7.80;;;4.25;;
72261;SDS011;60173;52.112;8.648;2023-09-07T08:54:14;10.40;;;5.20;;
72261;SDS011;60173;52.112;8.648;2023-09-07T08:56:40;5.43;;;3.95;;
72261;SDS011;60173;52.112;8.648;2023-09-07T08:59:07;6.03;;;4.22;;
72261;SDS011;60173;52.112;8.648;2023-09-07T09:01:34;6.97;;;4.22;;
72261;SDS011;60173;52.112;8.648;2023-09-07T09:04:00;6.18;;;3.90;;
72261;SDS011;60173;52.112;8.648;2023-09-07T09:06:27;6.93;;;4.30;;
72261;SDS011;60173;52.112;8.648;2023-09-07T09:08:54;7.70;;;4.50;;
72261;SDS011;60173;52.112;8.648;2023-09-07T09:11:22;6.75;;;4.40;;
72261;SDS011;60173;52.112;8.648;2023-09-07T09:13:50;6.38;;;4.38;;
72261;SDS011;60173;52.112;8.648;2023-09-07T09:16:18;5.68;;;3.60;;
72261;SDS011;60173;52.112;8.648;2023-09-07T09:21:15;9.82;;;4.25;;
72261;SDS011;60173;52.112;8.648;2023-09-07T09:23:41;7.07;;;4.13;;
72261;SDS011;60173;52.112;8.648;2023-09-07T09:26:08;8.68;;;3.88;;
72261;SDS011;60173;52.112;8.648;2023-09-07T09:28:34;7.20;;;4.07;;
72261;SDS011;60173;52.112;8.648;2023-09-07T09:31:02;8.38;;;4.07;;
72261;SDS011;60173;52.112;8.648;2023-09-07T09:33:32;5.85;;;4.38;;
72261;SDS011;60173;52.112;8.648;2023-09-07T09:35:59;10.20;;;4.22;;
72261;SDS011;60173;52.112;8.648;2023-09-07T09:38:25;5.85;;;3.92;;
72261;SDS011;60173;52.112;8.648;2023-09-07T09:40:52;8.35;;;4.45;;
72261;SDS011;60173;52.112;8.648;2023-09-07T09:43:19;4.85;;;3.80;;
72261;SDS011;60173;52.112;8.648;2023-09-07T09:45:46;5.85;;;4.50;;
72261;SDS011;60173;52.112;8.648;2023-09-07T09:48:14;7.93;;;3.92;;
72261;SDS011;60173;52.112;8.648;2023-09-07T09:50:43;10.25;;;4.00;;
72261;SDS011;60173;52.112;8.648;2023-09-07T09:53:10;5.40;;;4.15;;
72261;SDS011;60173;52.112;8.648;2023-09-07T09:55:38;5.90;;;3.85;;
72261;SDS011;60173;52.112;8.648;2023-09-07T09:58:05;5.80;;;3.70;;
72261;SDS011;60173;52.112;8.648;2023-09-07T10:00:31;6.03;;;3.85;;
72261;SDS011;60173;52.112;8.648;2023-09-07T10:03:01;7.95;;;4.38;;
72261;SDS011;60173;52.112;8.648;2023-09-07T10:05:31;7.60;;;4.15;;
72261;SDS011;60173;52.112;8.648;2023-09-07T10:08:02;6.45;;;4.00;;
72261;SDS011;60173;52.112;8.648;2023-09-07T10:10:31;4.25;;;3.75;;
72261;SDS011;60173;52.112;8.648;2023-09-07T10:13:00;6.55;;;3.65;;
72261;SDS011;60173;52.112;8.648;2023-09-07T10:15:27;5.10;;;4.00;;
72261;SDS011;60173;52.112;8.648;2023-09-07T10:18:12;7.65;;;4.03;;
72261;SDS011;60173;52.112;8.648;2023-09-07T10:21:13;6.25;;;4.18;;
72261;SDS011;60173;52.112;8.648;2023-09-07T10:23:36;5.00;;;3.40;;
72261;SDS011;60173;52.112;8.648;2023-09-07T10:26:05;14.27;;;3.72;;
72261;SDS011;60173;52.112;8.648;2023-09-07T10:28:36;6.00;;;3.60;;
72261;SDS011;60173;52.112;8.648;2023-09-07T10:31:03;4.57;;;3.55;;
72261;SDS011;60173;52.112;8.648;2023-09-07T10:33:31;6.43;;;3.58;;
72261;SDS011;60173;52.112;8.648;2023-09-07T10:35:59;6.43;;;3.67;;
72261;SDS011;60173;52.112;8.648;2023-09-07T10:38:26;5.15;;;3.83;;
72261;SDS011;60173;52.112;8.648;2023-09-07T10:40:56;7.75;;;3.88;;
72261;SDS011;60173;52.112;8.648;2023-09-07T10:43:25;5.40;;;3.97;;
72261;SDS011;60173;52.112;8.648;2023-09-07T10:45:53;6.72;;;4.03;;
72261;SDS011;60173;52.112;8.648;2023-09-07T10:48:20;4.68;;;3.28;;
72261;SDS011;60173;52.112;8.648;2023-09-07T10:50:47;5.68;;;3.80;;
72261;SDS011;60173;52.112;8.648;2023-09-07T10:53:14;4.43;;;3.75;;
72261;SDS011;60173;52.112;8.648;2023-09-07T10:55:50;8.23;;;3.80;;
72261;SDS011;60173;52.112;8.648;2023-09-07T10:58:35;8.02;;;3.70;;
72261;SDS011;60173;52.112;8.648;2023-09-07T11:01:02;6.07;;;3.55;;
72261;SDS011;60173;52.112;8.648;2023-09-07T11:03:29;6.30;;;3.65;;
72261;SDS011;60173;52.112;8.648;2023-09-07T11:05:58;7.05;;;3.60;;
72261;SDS011;60173;52.112;8.648;2023-09-07T11:08:27;4.68;;;3.30;;
72261;SDS011;60173;52.112;8.648;2023-09-07T11:10:55;5.82;;;3.80;;
72261;SDS011;60173;52.112;8.648;2023-09-07T11:13:25;4.25;;;3.63;;
72261;SDS011;60173;52.112;8.648;2023-09-07T11:15:56;5.60;;;3.55;;
72261;SDS011;60173;52.112;8.648;2023-09-07T11:18:23;6.60;;;3.50;;
72261;SDS011;60173;52.112;8.648;2023-09-07T11:20:51;5.40;;;3.58;;
72261;SDS011;60173;52.112;8.648;2023-09-07T11:23:19;7.68;;;3.55;;
72261;SDS011;60173;52.112;8.648;2023-09-07T11:25:47;6.20;;;3.70;;
72261;SDS011;60173;52.112;8.648;2023-09-07T11:28:18;5.50;;;3.58;;
72261;SDS011;60173;52.112;8.648;2023-09-07T11:30:48;6.82;;;3.75;;
72261;SDS011;60173;52.112;8.648;2023-09-07T11:33:15;7.20;;;3.85;;
72261;SDS011;60173;52.112;8.648;2023-09-07T11:35:42;6.38;;;3.55;;
72261;SDS011;60173;52.112;8.648;2023-09-07T11:38:12;7.50;;;3.55;;
72261;SDS011;60173;52.112;8.648;2023-09-07T11:40:39;4.10;;;3.40;;
72261;SDS011;60173;52.112;8.648;2023-09-07T11:43:06;4.88;;;3.42;;
72261;SDS011;60173;52.112;8.648;2023-09-07T11:45:32;6.85;;;3.70;;
72261;SDS011;60173;52.112;8.648;2023-09-07T11:47:59;7.35;;;3.92;;
72261;SDS011;60173;52.112;8.648;2023-09-07T11:50:25;4.07;;;3.30;;
72261;SDS011;60173;52.112;8.648;2023-09-07T11:52:52;4.40;;;3.22;;
72261;SDS011;60173;52.112;8.648;2023-09-07T11:55:18;5.82;;;3.70;;
72261;SDS011;60173;52.112;8.648;2023-09-07T11:57:45;5.95;;;3.80;;
72261;SDS011;60173;52.112;8.648;2023-09-07T12:00:11;4.53;;;3.13;;
72261;SDS011;60173;52.112;8.648;2023-09-07T12:02:38;7.63;;;3.35;;
72261;SDS011;60173;52.112;8.648;2023-09-07T12:05:05;3.72;;;3.25;;
72261;SDS011;60173;52.112;8.648;2023-09-07T12:07:32;5.43;;;3.33;;
72261;SDS011;60173;52.112;8.648;2023-09-07T12:09:59;9.55;;;3.58;;
72261;SDS011;60173;52.112;8.648;2023-09-07T12:12:26;4.07;;;3.22;;
72261;SDS011;60173;52.112;8.648;2023-09-07T12:14:52;4.60;;;3.53;;
72261;SDS011;60173;52.112;8.648;2023-09-07T12:17:19;4.43;;;3.50;;
72261;SDS011;60173;52.112;8.648;2023-09-07T12:19:45;3.85;;;3.30;;
72261;SDS011;60173;52.112;8.648;2023-09-07T12:22:12;4.30;;;3.25;;
72261;SDS011;60173;52.112;8.648;2023-09-07T12:24:38;6.38;;;3.60;;
72261;SDS011;60173;52.112;8.648;2023-09-07T12:27:05;6.78;;;3.38;;
72261;SDS011;60173;52.112;8.648;2023-09-07T12:29:31;7.75;;;3.28;;
72261;SDS011;60173;52.112;8.648;2023-09-07T12:31:58;7.85;;;3.20;;
72261;SDS011;60173;52.112;8.648;2023-09-07T12:34:24;3.72;;;3.30;;
72261;SDS011;60173;52.112;8.648;2023-09-07T12:36:51;4.32;;;3.53;;
72261;SDS011;60173;52.112;8.648;2023-09-07T12:39:17;4.25;;;3.00;;
72261;SDS011;60173;52.112;8.648;2023-09-07T12:41:43;4.20;;;3.40;;
72261;SDS011;60173;52.112;8.648;2023-09-07T12:44:10;7.43;;;3.05;;
72261;SDS011;60173;52.112;8.648;2023-09-07T12:46:36;5.78;;;3.15;;
72261;SDS011;60173;52.112;8.648;2023-09-07T12:49:03;6.50;;;3.25;;
72261;SDS011;60173;52.112;8.648;2023-09-07T12:51:29;5.20;;;2.80;;
72261;SDS011;60173;52.112;8.648;2023-09-07T12:53:56;5.35;;;2.92;;
72261;SDS011;60173;52.112;8.648;2023-09-07T12:56:22;4.55;;;2.67;;
72261;SDS011;60173;52.112;8.648;2023-09-07T12:58:49;4.53;;;2.78;;
72261;SDS011;60173;52.112;8.648;2023-09-07T13:01:16;3.45;;;2.60;;
72261;SDS011;60173;52.112;8.648;2023-09-07T13:03:42;6.10;;;2.90;;
72261;SDS011;60173;52.112;8.648;2023-09-07T13:06:09;6.32;;;2.50;;
72261;SDS011;60173;52.112;8.648;2023-09-07T13:08:35;5.05;;;2.90;;
72261;SDS011;60173;52.112;8.648;2023-09-07T13:11:02;3.90;;;2.78;;
72261;SDS011;60173;52.112;8.648;2023-09-07T13:13:28;6.28;;;2.70;;
72261;SDS011;60173;52.112;8.648;2023-09-07T13:15:55;3.28;;;2.70;;
72261;SDS011;60173;52.112;8.648;2023-09-07T13:18:22;4.85;;;3.00;;
72261;SDS011;60173;52.112;8.648;2023-09-07T13:20:49;3.90;;;2.72;;
72261;SDS011;60173;52.112;8.648;2023-09-07T13:23:15;7.50;;;2.88;;
72261;SDS011;60173;52.112;8.648;2023-09-07T13:25:42;4.57;;;2.55;;
72261;SDS011;60173;52.112;8.648;2023-09-07T13:28:09;6.10;;;2.72;;
72261;SDS011;60173;52.112;8.648;2023-09-07T13:30:35;3.53;;;2.92;;
72261;SDS011;60173;52.112;8.648;2023-09-07T13:33:02;3.30;;;2.83;;
72261;SDS011;60173;52.112;8.648;2023-09-07T13:35:28;6.05;;;2.90;;
72261;SDS011;60173;52.112;8.648;2023-09-07T13:37:55;5.35;;;3.00;;
72261;SDS011;60173;52.112;8.648;2023-09-07T13:40:21;3.95;;;3.00;;
72261;SDS011;60173;52.112;8.648;2023-09-07T13:42:48;6.10;;;3.03;;
72261;SDS011;60173;52.112;8.648;2023-09-07T13:45:14;5.38;;;3.00;;
72261;SDS011;60173;52.112;8.648;2023-09-07T13:47:41;3.90;;;2.70;;
72261;SDS011;60173;52.112;8.648;2023-09-07T13:50:07;4.60;;;2.90;;
72261;SDS011;60173;52.112;8.648;2023-09-07T13:52:33;7.85;;;2.88;;
72261;SDS011;60173;52.112;8.648;2023-09-07T13:55:00;4.63;;;3.08;;
72261;SDS011;60173;52.112;8.648;2023-09-07T13:57:26;4.82;;;3.05;;
72261;SDS011;60173;52.112;8.648;2023-09-07T13:59:53;4.00;;;2.88;;
72261;SDS011;60173;52.112;8.648;2023-09-07T14:02:20;7.15;;;3.13;;
72261;SDS011;60173;52.112;8.648;2023-09-07T14:04:46;5.88;;;3.03;;
72261;SDS011;60173;52.112;8.648;2023-09-07T14:07:13;4.55;;;3.20;;
72261;SDS011;60173;52.112;8.648;2023-09-07T14:09:39;6.90;;;2.70;;
72261;SDS011;60173;52.112;8.648;2023-09-07T14:12:05;5.35;;;3.05;;
72261;SDS011;60173;52.112;8.648;2023-09-07T14:14:32;3.42;;;3.10;;
72261;SDS011;60173;52.112;8.648;2023-09-07T14:16:59;5.97;;;3.42;;
72261;SDS011;60173;52.112;8.648;2023-09-07T14:19:25;4.93;;;3.10;;
72261;SDS011;60173;52.112;8.648;2023-09-07T14:21:53;5.85;;;3.42;;
72261;SDS011;60173;52.112;8.648;2023-09-07T14:24:19;9.30;;;3.78;;
72261;SDS011;60173;52.112;8.648;2023-09-07T14:26:45;11.15;;;3.80;;
72261;SDS011;60173;52.112;8.648;2023-09-07T14:29:12;4.72;;;3.33;;
72261;SDS011;60173;52.112;8.648;2023-09-07T14:31:38;5.68;;;3.58;;
72261;SDS011;60173;52.112;8.648;2023-09-07T14:34:05;8.73;;;3.65;;
72261;SDS011;60173;52.112;8.648;2023-09-07T14:36:31;5.57;;;3.60;;
72261;SDS011;60173;52.112;8.648;2023-09-07T14:38:57;7.50;;;3.50;;
72261;SDS011;60173;52.112;8.648;2023-09-07T14:41:24;5.00;;;3.42;;
72261;SDS011;60173;52.112;8.648;2023-09-07T14:43:50;6.18;;;3.55;;
72261;SDS011;60173;52.112;8.648;2023-09-07T14:46:17;6.53;;;3.58;;